首页
METAR-TAF:

METAR-TAF

机场 :

內排國際機場

河內, 越南

纬度: 21-01N, 经度: 105-48E, 海拔: 6米

当前天气观测

该预报发布于28分钟前的01:30 UTC
风速5节,风向,在东转东北东南之间变化
温度 31°C
湿度 75%
气压 1006 hPa
能见度10公里或以上
少量云层高于1700英尺

METAR: VVNB 260130Z 10005KT 060V140 9999 FEW017 31/26 Q1006 NOSIG

时间: 08:58 (01:58 UTC)

预报

该预报发布于2小时和58分钟前的23:00 UTC
预报有效从26日的 00点(UTC)到 26日的 24点(UTC)
风速8节,风向东转东南
能见度10公里或以上
少量云层高于3000英尺

TAF: VVNB 252300Z 2600/2624 12008KT 9999 FEW030

超过4000个机场的气象观测和天气预报(METAR&TAF报告)。

可查询的气象台以黄色和红色小点在地图上表示。

将鼠标移到小点上方,可查看气象台名称。

然后点击查看天气观测和预报。

如需切换地图:点击带黑十字的绿色按钮放大地图;点击带横线的绿色按钮缩小地图;或者点击绿色箭头查看邻近地区的地图。


METAR-TAF: